createdAt,value
2022-09-09T00:00:28.468Z,38.92
2022-09-09T00:03:03.639Z,45.55
2022-09-09T00:05:37.872Z,23.17
2022-09-09T00:08:06.057Z,23.58
2022-09-09T00:10:40.572Z,16.23
2022-09-09T00:13:17.328Z,9.50
2022-09-09T00:15:56.105Z,29.27
2022-09-09T00:18:30.524Z,17.25
2022-09-09T00:21:03.981Z,17.45
2022-09-09T00:23:34.999Z,16.88
2022-09-09T00:26:07.989Z,24.80
2022-09-09T00:28:43.120Z,27.42
2022-09-09T00:31:15.663Z,25.25
2022-09-09T00:33:44.236Z,18.98
2022-09-09T00:36:16.876Z,14.95
2022-09-09T00:38:48.524Z,26.80
2022-09-09T00:41:23.029Z,22.30
2022-09-09T00:43:59.243Z,16.33
2022-09-09T00:46:46.868Z,24.92
2022-09-09T00:49:24.331Z,31.17
2022-09-09T00:52:03.906Z,28.77
2022-09-09T00:54:41.478Z,21.00
2022-09-09T00:57:24.751Z,18.98
2022-09-09T00:59:58.408Z,21.02
2022-09-09T01:02:35.431Z,19.33
2022-09-09T01:05:12.393Z,14.18
2022-09-09T01:07:45.773Z,17.20
2022-09-09T01:10:27.617Z,12.80
2022-09-09T01:12:59.718Z,15.48
2022-09-09T01:15:33.132Z,12.50
2022-09-09T01:18:05.597Z,13.65
2022-09-09T01:20:43.835Z,17.52
2022-09-09T01:23:39.603Z,15.70
2022-09-09T01:26:27.117Z,12.57
2022-09-09T01:28:57.228Z,16.23
2022-09-09T01:31:37.456Z,12.50
2022-09-09T01:34:11.587Z,14.40
2022-09-09T01:36:45.453Z,14.57
2022-09-09T01:39:13.947Z,11.80
2022-09-09T01:41:43.440Z,14.10
2022-09-09T01:44:13.820Z,15.32
2022-09-09T01:46:44.472Z,10.73
2022-09-09T01:49:17.936Z,10.15
2022-09-09T01:51:51.957Z,24.40
2022-09-09T01:54:24.608Z,38.80
2022-09-09T01:57:07.249Z,26.75
2022-09-09T01:59:46.469Z,28.05
2022-09-09T02:02:19.313Z,26.58
2022-09-09T02:05:17.692Z,24.42
2022-09-09T02:07:48.901Z,17.00
2022-09-09T02:10:33.049Z,28.45
2022-09-09T02:13:16.121Z,19.15
2022-09-09T02:15:49.191Z,19.67
2022-09-09T02:18:25.530Z,22.88
2022-09-09T02:20:54.550Z,18.75
2022-09-09T02:23:22.423Z,24.75
2022-09-09T02:25:56.846Z,8.25
2022-09-09T02:28:33.640Z,10.00
2022-09-09T02:31:02.324Z,12.20
2022-09-09T02:33:41.085Z,11.25
2022-09-09T02:36:11.503Z,18.75
2022-09-09T02:38:51.485Z,18.27
2022-09-09T02:41:25.655Z,21.05
2022-09-09T02:43:54.474Z,29.27
2022-09-09T02:46:34.418Z,13.40
2022-09-09T02:51:45.707Z,23.15
2022-09-09T02:54:28.437Z,20.85
2022-09-09T02:56:57.438Z,22.58
2022-09-09T02:59:35.534Z,16.30
2022-09-09T03:02:03.150Z,16.75
2022-09-09T03:04:32.224Z,17.23
2022-09-09T03:07:00.109Z,11.93
2022-09-09T03:09:27.582Z,13.55
2022-09-09T03:11:56.536Z,13.82
2022-09-09T03:14:26.212Z,18.00
2022-09-09T03:16:57.550Z,12.95
2022-09-09T03:19:25.820Z,14.90
2022-09-09T03:21:53.229Z,16.77
2022-09-09T03:24:21.040Z,15.55
2022-09-09T03:26:48.463Z,17.73
2022-09-09T03:29:21.039Z,13.95
2022-09-09T03:31:49.010Z,12.20
2022-09-09T03:34:17.760Z,11.27
2022-09-09T03:36:45.123Z,8.13
2022-09-09T03:39:12.648Z,11.35
2022-09-09T03:41:47.393Z,9.38
2022-09-09T03:44:15.759Z,11.55
2022-09-09T03:46:44.027Z,10.98
2022-09-09T03:49:12.036Z,11.75
2022-09-09T03:51:43.646Z,15.40
2022-09-09T03:54:13.785Z,10.27
2022-09-09T03:56:42.797Z,12.60
2022-09-09T03:59:15.544Z,10.15
2022-09-09T04:01:44.016Z,13.98
2022-09-09T04:04:13.189Z,9.52
2022-09-09T04:06:42.674Z,14.38
2022-09-09T04:09:09.759Z,10.90
2022-09-09T04:11:38.242Z,9.55
2022-09-09T04:14:07.142Z,8.35
2022-09-09T04:16:38.502Z,11.10
2022-09-09T04:19:07.785Z,9.13
2022-09-09T04:21:37.164Z,12.93
2022-09-09T04:24:06.605Z,12.15
2022-09-09T04:26:34.214Z,12.93
2022-09-09T04:29:01.624Z,11.52
2022-09-09T04:31:29.644Z,12.95
2022-09-09T04:33:57.823Z,17.38
2022-09-09T04:36:26.700Z,11.05
2022-09-09T04:38:59.585Z,13.75
2022-09-09T04:41:28.936Z,12.73
2022-09-09T04:43:56.664Z,12.18
2022-09-09T04:46:24.755Z,17.95
2022-09-09T04:48:53.782Z,11.90
2022-09-09T04:51:23.178Z,12.57
2022-09-09T04:53:52.183Z,13.70
2022-09-09T04:56:20.339Z,7.25
2022-09-09T04:58:58.655Z,13.18
2022-09-09T05:01:37.982Z,12.13
2022-09-09T05:04:07.419Z,11.10
2022-09-09T05:06:37.334Z,7.72
2022-09-09T05:09:05.898Z,9.75
2022-09-09T05:11:37.115Z,11.05
2022-09-09T05:14:13.888Z,14.90
2022-09-09T05:16:41.600Z,25.20
2022-09-09T05:19:09.334Z,11.48
2022-09-09T05:21:46.599Z,16.95
2022-09-09T05:24:16.793Z,22.58
2022-09-09T05:26:45.274Z,14.45
2022-09-09T05:29:13.989Z,17.48
2022-09-09T05:31:42.535Z,14.30
2022-09-09T05:34:14.331Z,18.30
2022-09-09T05:36:41.764Z,13.13
2022-09-09T05:39:10.005Z,17.10
2022-09-09T05:41:37.516Z,12.07
2022-09-09T05:44:05.731Z,15.07
2022-09-09T05:46:39.261Z,20.35
2022-09-09T05:49:07.238Z,11.23
2022-09-09T05:51:35.788Z,18.42
2022-09-09T05:54:08.421Z,16.45
2022-09-09T05:56:40.372Z,18.08
2022-09-09T05:59:09.275Z,17.10
2022-09-09T06:01:41.693Z,17.77
2022-09-09T06:04:13.578Z,19.55
2022-09-09T06:06:43.203Z,19.80
2022-09-09T06:09:16.704Z,11.02
2022-09-09T06:11:46.743Z,13.07
2022-09-09T06:14:19.301Z,8.52
2022-09-09T06:16:50.672Z,12.93
2022-09-09T06:19:28.412Z,6.32
2022-09-09T06:21:58.362Z,8.50
2022-09-09T06:24:25.948Z,8.85
2022-09-09T06:26:55.245Z,4.70
2022-09-09T06:29:27.727Z,9.23
2022-09-09T06:31:57.532Z,8.18
2022-09-09T06:34:29.014Z,7.57
2022-09-09T06:36:59.491Z,11.30
2022-09-09T06:39:32.266Z,8.45
2022-09-09T06:42:01.755Z,10.68
2022-09-09T06:44:53.552Z,10.23
2022-09-09T06:47:36.854Z,8.93
2022-09-09T06:50:06.589Z,7.47
2022-09-09T06:52:35.437Z,15.38
2022-09-09T06:55:03.890Z,11.10
2022-09-09T06:57:37.287Z,10.32
2022-09-09T07:00:11.204Z,9.40
2022-09-09T07:02:40.794Z,9.02
2022-09-09T07:05:10.115Z,12.07
2022-09-09T07:07:38.290Z,5.57
2022-09-09T07:10:07.005Z,5.72
2022-09-09T07:12:36.759Z,5.88
2022-09-09T07:15:05.109Z,8.25
2022-09-09T07:17:32.695Z,8.43
2022-09-09T07:20:05.181Z,6.30
2022-09-09T07:22:34.237Z,5.72
2022-09-09T07:25:03.377Z,6.82
2022-09-09T07:27:31.332Z,5.75
2022-09-09T07:29:58.863Z,10.13
2022-09-09T07:32:26.819Z,10.15
2022-09-09T07:34:54.402Z,6.15
2022-09-09T07:37:23.347Z,7.68
2022-09-09T07:39:52.348Z,6.60
2022-09-09T07:42:20.591Z,6.93
2022-09-09T07:44:48.567Z,8.98
2022-09-09T07:47:17.530Z,5.40
2022-09-09T07:49:51.459Z,4.18
2022-09-09T07:52:26.659Z,5.15
2022-09-09T07:54:58.218Z,5.97
2022-09-09T07:57:25.845Z,6.13
2022-09-09T07:59:54.560Z,3.05
2022-09-09T08:02:24.297Z,6.43
2022-09-09T08:04:52.697Z,4.95
2022-09-09T08:07:22.545Z,8.13
2022-09-09T08:09:56.852Z,5.40
2022-09-09T08:12:29.234Z,4.00
2022-09-09T08:14:57.180Z,6.47
2022-09-09T08:17:31.357Z,3.15
2022-09-09T08:20:06.961Z,5.70
2022-09-09T08:22:35.581Z,5.68
2022-09-09T08:25:07.535Z,7.93
2022-09-09T08:27:38.273Z,6.32
2022-09-09T08:30:06.607Z,6.18
2022-09-09T08:32:34.249Z,9.40
2022-09-09T08:35:01.696Z,3.55
2022-09-09T08:37:30.669Z,5.50
2022-09-09T08:39:58.126Z,3.80
2022-09-09T08:42:40.607Z,4.03
2022-09-09T08:45:21.195Z,5.22
2022-09-09T08:48:02.388Z,7.15
2022-09-09T08:50:36.447Z,5.93
2022-09-09T08:53:21.141Z,4.40
2022-09-09T08:55:50.869Z,7.18
2022-09-09T08:58:25.958Z,3.55
2022-09-09T09:01:18.528Z,5.65
2022-09-09T09:04:00.130Z,6.88
2022-09-09T09:06:40.662Z,6.30
2022-09-09T09:09:21.928Z,4.90
2022-09-09T09:11:52.659Z,8.55
2022-09-09T09:14:24.594Z,3.90
2022-09-09T09:17:00.379Z,6.88
2022-09-09T09:19:31.255Z,3.53
2022-09-09T09:24:36.776Z,6.22
2022-09-09T09:27:14.172Z,5.53
2022-09-09T09:30:17.530Z,7.85
2022-09-09T09:32:37.553Z,5.13
2022-09-09T09:35:13.024Z,4.97
2022-09-09T09:40:31.271Z,2.80
2022-09-09T09:43:00.753Z,8.18
2022-09-09T09:45:35.282Z,6.85
2022-09-09T09:48:07.987Z,4.97
2022-09-09T09:50:49.882Z,4.28
2022-09-09T09:53:26.809Z,4.07
2022-09-09T09:55:59.338Z,3.72
2022-09-09T09:58:31.711Z,1.92
2022-09-09T10:01:01.480Z,3.38
2022-09-09T10:03:32.259Z,2.53
2022-09-09T10:06:01.698Z,5.82
2022-09-09T10:08:29.422Z,4.78
2022-09-09T10:11:20.439Z,4.93
2022-09-09T10:13:58.923Z,6.28
2022-09-09T10:16:40.095Z,4.88
2022-09-09T10:19:14.123Z,4.20
2022-09-09T10:21:59.827Z,7.40
2022-09-09T10:24:43.071Z,3.05
2022-09-09T10:27:21.241Z,8.23
2022-09-09T10:30:00.426Z,5.72
2022-09-09T10:32:54.653Z,7.03
2022-09-09T10:35:30.489Z,3.03
2022-09-09T10:38:15.936Z,3.83
2022-09-09T10:40:52.324Z,4.22
2022-09-09T10:43:35.591Z,4.45
2022-09-09T10:46:14.923Z,6.30
2022-09-09T10:49:00.535Z,7.13
2022-09-09T10:51:39.038Z,4.43
2022-09-09T10:54:30.113Z,5.07
2022-09-09T10:57:04.086Z,6.53
2022-09-09T10:59:37.079Z,3.72
2022-09-09T11:02:14.598Z,6.82
2022-09-09T11:04:49.570Z,7.07
2022-09-09T11:07:26.710Z,5.13
2022-09-09T11:09:59.932Z,4.35
2022-09-09T11:12:29.907Z,3.35
2022-09-09T11:15:02.886Z,5.93
2022-09-09T11:17:37.820Z,5.57
2022-09-09T11:20:12.971Z,4.93
2022-09-09T11:22:50.546Z,3.65
2022-09-09T11:25:22.787Z,4.20
2022-09-09T11:28:08.767Z,4.22
2022-09-09T11:31:02.826Z,4.68
2022-09-09T11:33:44.579Z,5.45
2022-09-09T11:36:41.122Z,6.00
2022-09-09T11:39:40.878Z,3.50
2022-09-09T11:42:16.415Z,4.35
2022-09-09T11:44:43.875Z,3.72
2022-09-09T11:47:22.785Z,7.70
2022-09-09T11:49:50.289Z,3.83
2022-09-09T11:52:26.920Z,6.22
2022-09-09T11:54:57.556Z,4.80
2022-09-09T11:57:29.693Z,2.28
2022-09-09T11:59:57.691Z,4.28
2022-09-09T12:02:27.702Z,3.70
2022-09-09T12:05:03.934Z,5.82
2022-09-09T12:07:40.053Z,4.20
2022-09-09T12:10:24.844Z,2.47
2022-09-09T12:12:53.895Z,5.50
2022-09-09T12:15:29.910Z,4.30
2022-09-09T12:18:03.190Z,3.30
2022-09-09T12:20:37.113Z,6.22
2022-09-09T12:23:31.998Z,4.35
2022-09-09T12:26:07.700Z,6.07
2022-09-09T12:28:48.383Z,6.32
2022-09-09T12:31:26.730Z,2.85
2022-09-09T12:33:54.030Z,2.67
2022-09-09T12:36:24.583Z,5.38
2022-09-09T12:38:55.176Z,4.72
2022-09-09T12:41:24.251Z,4.85
2022-09-09T12:43:52.453Z,5.30
2022-09-09T12:46:35.298Z,8.45
2022-09-09T12:49:03.222Z,4.75
2022-09-09T12:51:32.470Z,8.95
2022-09-09T12:54:03.217Z,4.13
2022-09-09T12:56:33.423Z,3.65
2022-09-09T12:59:02.362Z,11.18
2022-09-09T13:01:31.418Z,7.75
2022-09-09T13:03:59.441Z,4.05
2022-09-09T13:06:29.459Z,4.57
2022-09-09T13:09:00.311Z,5.50
2022-09-09T13:13:59.602Z,3.33
2022-09-09T13:16:32.718Z,3.45
2022-09-09T13:19:02.487Z,4.53
2022-09-09T13:21:35.476Z,4.87
2022-09-09T13:24:04.537Z,3.63
2022-09-09T13:26:33.127Z,12.38
2022-09-09T13:29:18.795Z,7.00
2022-09-09T13:31:47.125Z,4.72
2022-09-09T13:34:15.428Z,3.40
2022-09-09T13:36:48.911Z,2.50
2022-09-09T13:39:21.445Z,3.78
2022-09-09T13:41:50.481Z,2.70
2022-09-09T13:44:24.720Z,3.40
2022-09-09T13:47:06.783Z,3.40
2022-09-09T13:49:37.324Z,6.80
2022-09-09T13:52:10.106Z,6.30
2022-09-09T13:54:37.461Z,3.63
2022-09-09T13:57:07.078Z,2.53
2022-09-09T13:59:54.330Z,4.72
2022-09-09T14:02:25.548Z,3.50
2022-09-09T14:04:56.186Z,3.65
2022-09-09T14:07:24.007Z,2.80
2022-09-09T14:09:52.913Z,1.52
2022-09-09T14:12:21.491Z,3.40
2022-09-09T14:14:50.808Z,4.72
2022-09-09T14:17:18.623Z,5.22
2022-09-09T14:19:47.159Z,4.35
2022-09-09T14:22:14.725Z,4.82
2022-09-09T14:24:44.071Z,5.18
2022-09-09T14:27:11.489Z,6.72
2022-09-09T14:29:40.079Z,3.80
2022-09-09T14:32:12.443Z,4.05
2022-09-09T14:34:40.250Z,4.15
2022-09-09T14:37:08.627Z,7.57
2022-09-09T14:39:36.107Z,4.10
2022-09-09T14:42:03.616Z,1.98
2022-09-09T14:44:30.797Z,3.15
2022-09-09T14:46:59.737Z,3.80
2022-09-09T14:49:26.989Z,2.95
2022-09-09T14:51:54.263Z,4.43
2022-09-09T14:54:22.348Z,2.47
2022-09-09T14:56:49.918Z,5.03
2022-09-09T14:59:17.219Z,3.05
2022-09-09T15:01:44.849Z,5.85
2022-09-09T15:04:15.880Z,4.45
2022-09-09T15:06:45.388Z,4.55
2022-09-09T15:09:12.896Z,4.55
2022-09-09T15:11:40.448Z,5.28
2022-09-09T15:14:09.292Z,4.13
2022-09-09T15:16:36.898Z,3.97
2022-09-09T15:19:04.646Z,3.70
2022-09-09T15:21:35.763Z,5.70
2022-09-09T15:24:03.374Z,4.57
2022-09-09T15:26:31.243Z,4.05
2022-09-09T15:29:00.544Z,4.45
2022-09-09T15:31:29.988Z,2.83
2022-09-09T15:34:01.864Z,4.43
2022-09-09T15:36:31.232Z,3.08
2022-09-09T15:39:00.681Z,5.03
2022-09-09T15:41:28.922Z,2.88
2022-09-09T15:44:01.555Z,4.50
2022-09-09T15:46:33.346Z,2.97
2022-09-09T15:49:06.041Z,6.70
2022-09-09T15:51:43.238Z,6.63
2022-09-09T15:54:15.201Z,4.97
2022-09-09T15:56:43.011Z,3.63
2022-09-09T15:59:11.017Z,4.35
2022-09-09T16:01:40.664Z,7.50
2022-09-09T16:06:35.749Z,5.85
2022-09-09T16:09:06.724Z,4.20
2022-09-09T16:11:37.740Z,5.15
2022-09-09T16:14:07.792Z,6.25
2022-09-09T16:16:36.507Z,6.50
2022-09-09T16:19:07.916Z,4.22
2022-09-09T16:21:38.730Z,3.13
2022-09-09T16:24:07.260Z,1.77
2022-09-09T16:26:37.948Z,3.85
2022-09-09T16:29:05.819Z,3.63
2022-09-09T16:31:33.650Z,4.07
2022-09-09T16:34:01.037Z,19.95
2022-09-09T16:36:35.207Z,9.88
2022-09-09T16:39:05.580Z,10.23
2022-09-09T16:41:34.087Z,6.70
2022-09-09T16:44:04.979Z,4.70
2022-09-09T16:46:35.144Z,5.07
2022-09-09T16:49:04.951Z,4.72
2022-09-09T16:54:03.819Z,4.97
2022-09-09T16:56:35.337Z,4.03
2022-09-09T16:59:06.287Z,4.18
2022-09-09T17:01:38.228Z,6.40
2022-09-09T17:04:08.497Z,4.95
2022-09-09T17:06:37.875Z,4.28
2022-09-09T17:09:08.021Z,4.63
2022-09-09T17:11:36.541Z,4.45
2022-09-09T17:14:06.362Z,7.38
2022-09-09T17:16:35.336Z,5.80
2022-09-09T17:19:04.740Z,4.60
2022-09-09T17:21:33.613Z,4.78
2022-09-09T17:24:01.831Z,21.70
2022-09-09T17:26:31.535Z,6.90
2022-09-09T17:31:29.648Z,6.15
2022-09-09T17:33:58.793Z,7.45
2022-09-09T17:36:28.500Z,6.53
2022-09-09T17:41:25.411Z,6.57
2022-09-09T17:43:53.016Z,7.80
2022-09-09T17:46:23.204Z,9.65
2022-09-09T17:48:56.015Z,6.78
2022-09-09T17:51:26.622Z,8.48
2022-09-09T17:53:55.897Z,6.28
2022-09-09T17:56:24.631Z,7.63
2022-09-09T17:58:53.957Z,7.63
2022-09-09T18:01:24.697Z,6.47
2022-09-09T18:03:54.805Z,7.50
2022-09-09T18:06:29.675Z,8.95
2022-09-09T18:09:00.832Z,5.97
2022-09-09T18:11:30.754Z,6.88
2022-09-09T18:14:02.616Z,6.55
2022-09-09T18:16:32.260Z,8.13
2022-09-09T18:19:04.188Z,8.13
2022-09-09T18:21:34.041Z,7.15
2022-09-09T18:26:30.504Z,5.65
2022-09-09T18:29:01.161Z,7.20
2022-09-09T18:31:30.052Z,5.93
2022-09-09T18:34:00.891Z,5.87
2022-09-09T18:36:31.907Z,6.65
2022-09-09T18:39:01.440Z,6.30
2022-09-09T18:41:30.839Z,6.10
2022-09-09T18:44:17.244Z,6.55
2022-09-09T18:46:45.825Z,7.28
2022-09-09T18:49:15.846Z,8.05
2022-09-09T18:51:50.368Z,7.55
2022-09-09T18:54:21.411Z,10.52
2022-09-09T18:56:51.144Z,8.38
2022-09-09T18:59:21.222Z,11.18
2022-09-09T19:01:51.023Z,11.15
2022-09-09T19:04:20.787Z,11.77
2022-09-09T19:06:57.818Z,10.13
2022-09-09T19:09:31.723Z,11.80
2022-09-09T19:12:00.262Z,9.43
2022-09-09T19:14:31.841Z,12.10
2022-09-09T19:17:02.145Z,11.75
2022-09-09T19:19:32.775Z,11.05
2022-09-09T19:22:10.229Z,11.10
2022-09-09T19:24:43.456Z,8.52
2022-09-09T19:27:11.870Z,9.68
2022-09-09T19:29:56.367Z,8.85
2022-09-09T19:32:52.749Z,8.05
2022-09-09T19:35:24.782Z,7.53
2022-09-09T19:37:56.836Z,8.75
2022-09-09T19:40:32.412Z,9.20
2022-09-09T19:43:33.913Z,15.05
2022-09-09T19:46:08.418Z,7.55
2022-09-09T19:48:41.095Z,10.50
2022-09-09T19:51:11.885Z,8.90
2022-09-09T19:53:44.538Z,8.27
2022-09-09T19:56:13.681Z,8.07
2022-09-09T19:58:42.220Z,7.35
2022-09-09T20:01:12.202Z,8.77
2022-09-09T20:03:43.699Z,6.82
2022-09-09T20:06:13.284Z,7.40
2022-09-09T20:08:43.647Z,8.80
2022-09-09T20:11:11.312Z,8.15
2022-09-09T20:13:39.426Z,8.23
2022-09-09T20:16:08.357Z,9.50
2022-09-09T20:18:37.203Z,7.20
2022-09-09T20:21:09.940Z,6.78
2022-09-09T20:23:39.482Z,5.57
2022-09-09T20:26:17.659Z,4.97
2022-09-09T20:28:50.677Z,8.48
2022-09-09T20:31:22.486Z,6.28
2022-09-09T20:33:50.541Z,8.50
2022-09-09T20:36:19.622Z,6.55
2022-09-09T20:39:54.448Z,5.10
2022-09-09T20:42:25.132Z,5.30
2022-09-09T20:44:53.154Z,5.40
2022-09-09T20:47:20.436Z,7.05
2022-09-09T20:49:47.865Z,6.15
2022-09-09T20:52:15.573Z,5.15
2022-09-09T20:54:43.078Z,7.28
2022-09-09T20:57:11.056Z,7.20
2022-09-09T20:59:41.614Z,5.72
2022-09-09T21:02:11.336Z,6.93
2022-09-09T21:04:39.972Z,7.95
2022-09-09T21:07:07.982Z,5.18
2022-09-09T21:09:35.620Z,5.25
2022-09-09T21:12:03.171Z,5.22
2022-09-09T21:14:32.778Z,6.88
2022-09-09T21:17:03.309Z,6.23
2022-09-09T21:19:30.598Z,3.45
2022-09-09T21:21:58.990Z,5.88
2022-09-09T21:24:28.950Z,5.43
2022-09-09T21:26:56.727Z,3.95
2022-09-09T21:29:24.361Z,9.68
2022-09-09T21:31:51.624Z,4.65
2022-09-09T21:34:20.332Z,4.93
2022-09-09T21:36:47.856Z,5.07
2022-09-09T21:39:15.313Z,9.45
2022-09-09T21:41:43.105Z,3.85
2022-09-09T21:44:14.524Z,6.57
2022-09-09T21:46:45.670Z,5.18
2022-09-09T21:49:17.817Z,3.92
2022-09-09T21:51:47.751Z,6.15
2022-09-09T21:54:35.844Z,5.90
2022-09-09T21:57:04.747Z,4.10
2022-09-09T21:59:32.695Z,6.13
2022-09-09T22:02:00.392Z,4.60
2022-09-09T22:04:27.687Z,4.60
2022-09-09T22:06:56.518Z,6.38
2022-09-09T22:09:24.130Z,4.60
2022-09-09T22:11:52.787Z,5.57
2022-09-09T22:14:20.488Z,4.40
2022-09-09T22:16:47.946Z,3.47
2022-09-09T22:19:16.846Z,3.97
2022-09-09T22:21:44.607Z,5.15
2022-09-09T22:24:13.423Z,4.28
2022-09-09T22:26:40.824Z,3.27
2022-09-09T22:29:09.210Z,5.90
2022-09-09T22:31:36.817Z,5.32
2022-09-09T22:34:05.792Z,4.85
2022-09-09T22:36:33.420Z,5.72
2022-09-09T22:39:02.103Z,4.97
2022-09-09T22:41:32.100Z,4.22
2022-09-09T22:43:59.619Z,5.55
2022-09-09T22:46:27.749Z,3.85
2022-09-09T22:48:55.028Z,5.32
2022-09-09T22:51:22.707Z,6.30
2022-09-09T22:53:50.057Z,4.65
2022-09-09T22:56:19.445Z,5.65
2022-09-09T22:58:52.723Z,3.55
2022-09-09T23:01:21.180Z,5.72
2022-09-09T23:03:49.478Z,4.47
2022-09-09T23:06:22.778Z,5.20
2022-09-09T23:08:52.594Z,5.30
2022-09-09T23:11:21.653Z,5.13
2022-09-09T23:13:52.848Z,4.47
2022-09-09T23:16:23.170Z,8.40
2022-09-09T23:18:52.402Z,4.22
2022-09-09T23:21:20.358Z,6.53
2022-09-09T23:23:47.750Z,4.95
2022-09-09T23:26:20.394Z,5.97
2022-09-09T23:28:52.562Z,5.57
2022-09-09T23:31:22.839Z,7.53
2022-09-09T23:33:50.298Z,4.18
2022-09-09T23:36:20.033Z,5.57
2022-09-09T23:41:16.617Z,6.35
2022-09-09T23:43:45.117Z,5.70
2022-09-09T23:46:20.411Z,4.38
2022-09-09T23:48:51.222Z,6.75
2022-09-09T23:51:20.329Z,5.82
2022-09-09T23:53:51.752Z,6.97
2022-09-09T23:56:20.556Z,5.05
2022-09-09T23:58:48.129Z,7.32
